Time;durP1;ratioP1;P1;durP2;ratioP2;P2;SDS_P1;SDS_P2;PMS_P1;PMS_P2;Temp;Humidity;BMP_temperature;BMP_pressure;BME280_temperature;BME280_humidity;BME280_pressure;Samples;Min_cycle;Max_cycle;Signal;HPM_P1;HPM_P2
2023/02/19 00:00:13;;;;;;;42.47;39.07;;;;;;;;;;5138033;27;20504;-79
2023/02/19 00:02:44;;;;;;;43.80;39.97;;;;;;;;;;5137095;27;20450;-79
2023/02/19 00:05:11;;;;;;;43.80;40.30;;;;;;;;;;5137326;27;20853;-80
2023/02/19 00:07:38;;;;;;;40.03;37.40;;;;;;;;;;5137988;27;20411;-79
2023/02/19 00:10:05;;;;;;;41.40;37.90;;;;;;;;;;5137961;27;20449;-80
2023/02/19 00:12:32;;;;;;;39.70;36.90;;;;;;;;;;5137204;27;20507;-80
2023/02/19 00:14:59;;;;;;;38.17;35.57;;;;;;;;;;5138020;27;20463;-80
2023/02/19 00:17:26;;;;;;;39.63;37.00;;;;;;;;;;5137521;27;20467;-80
2023/02/19 00:19:54;;;;;;;52.43;49.33;;;;;;;;;;5138462;27;20449;-81
2023/02/19 00:22:21;;;;;;;64.33;60.63;;;;;;;;;;5137956;27;20475;-80
2023/02/19 00:24:48;;;;;;;65.57;61.87;;;;;;;;;;5138262;27;20432;-81
2023/02/19 00:27:15;;;;;;;60.43;57.10;;;;;;;;;;5138550;27;20496;-80
2023/02/19 00:29:42;;;;;;;62.90;58.27;;;;;;;;;;5138424;27;20484;-80
2023/02/19 00:32:09;;;;;;;61.63;57.83;;;;;;;;;;5137671;27;20454;-81
2023/02/19 00:34:36;;;;;;;58.93;55.60;;;;;;;;;;5138417;27;20468;-82
2023/02/19 00:37:05;;;;;;;60.30;56.80;;;;;;;;;;5137657;27;20466;-80
2023/02/19 00:39:32;;;;;;;60.87;57.70;;;;;;;;;;5138468;27;20426;-81
2023/02/19 00:41:59;;;;;;;61.53;58.07;;;;;;;;;;5137634;27;20450;-81
2023/02/19 00:44:27;;;;;;;60.07;56.17;;;;;;;;;;5138560;27;20422;-80
2023/02/19 00:46:54;;;;;;;58.97;55.40;;;;;;;;;;5137647;27;20473;-80
2023/02/19 00:49:22;;;;;;;61.83;57.90;;;;;;;;;;5138271;27;20412;-80
2023/02/19 00:51:50;;;;;;;63.20;59.20;;;;;;;;;;5137595;27;21020;-80
2023/02/19 00:54:18;;;;;;;62.77;58.93;;;;;;;;;;5138358;27;20435;-81
2023/02/19 00:56:45;;;;;;;61.10;57.43;;;;;;;;;;5137350;27;20480;-81
2023/02/19 00:59:12;;;;;;;59.90;55.60;;;;;;;;;;5138355;27;20520;-81
2023/02/19 01:01:39;;;;;;;60.13;56.67;;;;;;;;;;5137849;27;20419;-81
2023/02/19 01:04:06;;;;;;;59.93;56.10;;;;;;;;;;5137699;27;20489;-81
2023/02/19 01:06:34;;;;;;;60.77;56.67;;;;;;;;;;5137318;27;20458;-81
2023/02/19 01:09:01;;;;;;;62.20;57.70;;;;;;;;;;5137660;28;20472;-80
2023/02/19 01:11:29;;;;;;;59.87;55.73;;;;;;;;;;5137130;27;20422;-81
2023/02/19 01:13:57;;;;;;;66.30;62.43;;;;;;;;;;5137724;28;20464;-80
2023/02/19 01:16:24;;;;;;;69.90;65.50;;;;;;;;;;5137089;27;20463;-81
2023/02/19 01:18:51;;;;;;;67.83;63.43;;;;;;;;;;5137710;28;20436;-81
2023/02/19 01:21:19;;;;;;;66.80;62.20;;;;;;;;;;5137301;28;20448;-83
2023/02/19 01:23:46;;;;;;;61.70;57.40;;;;;;;;;;5137780;28;20415;-80
2023/02/19 01:26:14;;;;;;;63.43;59.10;;;;;;;;;;5137347;28;20446;-81
2023/02/19 01:28:42;;;;;;;59.77;55.67;;;;;;;;;;5137525;27;20520;-81
2023/02/19 01:31:12;;;;;;;55.93;52.83;;;;;;;;;;5137542;28;20439;-80
2023/02/19 01:33:39;;;;;;;59.97;55.90;;;;;;;;;;5137269;28;20467;-81
2023/02/19 01:36:07;;;;;;;62.27;57.83;;;;;;;;;;5137690;28;20467;-81
2023/02/19 01:38:34;;;;;;;59.13;55.83;;;;;;;;;;5137423;27;20513;-81
2023/02/19 01:41:02;;;;;;;68.33;63.40;;;;;;;;;;5137425;28;20458;-81
2023/02/19 01:43:29;;;;;;;58.90;55.10;;;;;;;;;;5137150;28;20775;-82
2023/02/19 01:45:57;;;;;;;58.17;54.67;;;;;;;;;;5137346;28;20463;-81
2023/02/19 01:48:28;;;;;;;58.27;54.50;;;;;;;;;;5137045;27;20459;-81
2023/02/19 01:50:56;;;;;;;59.40;55.33;;;;;;;;;;5137459;28;20472;-81
2023/02/19 01:53:25;;;;;;;60.47;56.23;;;;;;;;;;5136769;28;20502;-81
2023/02/19 01:55:59;;;;;;;65.13;60.30;;;;;;;;;;5137574;28;20480;-81
2023/02/19 01:58:27;;;;;;;66.10;60.93;;;;;;;;;;5137885;28;20420;-81
2023/02/19 02:00:54;;;;;;;59.93;56.17;;;;;;;;;;5138418;28;20452;-81
2023/02/19 02:03:22;;;;;;;61.10;56.93;;;;;;;;;;5137180;28;20496;-81
2023/02/19 02:05:54;;;;;;;61.87;57.10;;;;;;;;;;5136479;27;20525;-80
2023/02/19 02:11:08;;;;;;;58.23;54.30;;;;;;;;;;5111055;28;20452;-81
2023/02/19 02:13:36;;;;;;;58.83;55.27;;;;;;;;;;5137021;28;20482;-81
2023/02/19 02:16:06;;;;;;;62.80;58.20;;;;;;;;;;5140231;27;20512;-80
2023/02/19 02:18:41;;;;;;;62.53;57.77;;;;;;;;;;5141656;27;20443;-82
2023/02/19 02:21:19;;;;;;;60.63;56.73;;;;;;;;;;5141558;27;20437;-82
2023/02/19 02:23:49;;;;;;;57.60;53.67;;;;;;;;;;5141812;27;20855;-81
2023/02/19 02:26:26;;;;;;;63.07;58.37;;;;;;;;;;5140750;27;20490;-82
2023/02/19 02:29:02;;;;;;;61.30;57.07;;;;;;;;;;5141464;27;20491;-82
2023/02/19 02:31:34;;;;;;;59.10;55.07;;;;;;;;;;5140635;27;20428;-82
2023/02/19 02:34:05;;;;;;;58.80;54.97;;;;;;;;;;5141154;27;20523;-82
2023/02/19 02:36:34;;;;;;;61.40;56.90;;;;;;;;;;5140354;27;20484;-81
2023/02/19 02:39:03;;;;;;;59.50;55.20;;;;;;;;;;5141257;27;20521;-81
2023/02/19 02:41:32;;;;;;;61.10;56.30;;;;;;;;;;5140647;27;20561;-82
2023/02/19 02:43:59;;;;;;;58.83;54.90;;;;;;;;;;5141866;27;20776;-82
2023/02/19 02:46:28;;;;;;;58.83;54.73;;;;;;;;;;5140540;27;20527;-83
2023/02/19 02:48:57;;;;;;;61.40;56.90;;;;;;;;;;5140672;27;20450;-81
2023/02/19 02:51:27;;;;;;;64.97;60.07;;;;;;;;;;5139901;27;20492;-82
2023/02/19 02:56:41;;;;;;;64.37;59.27;;;;;;;;;;5118704;27;20440;-82
2023/02/19 02:59:10;;;;;;;62.47;57.53;;;;;;;;;;5140477;27;20477;-82
2023/02/19 03:04:29;;;;;;;64.70;59.37;;;;;;;;;;5140703;27;20379;-81
2023/02/19 03:06:56;;;;;;;65.07;59.67;;;;;;;;;;5139749;27;20606;-81
2023/02/19 03:09:29;;;;;;;62.10;57.07;;;;;;;;;;5140394;27;20428;-81
2023/02/19 03:20:20;;;;;;;55.40;52.00;;;;;;;;;;5140445;27;20407;-81
2023/02/19 03:22:47;;;;;;;60.33;56.03;;;;;;;;;;5139750;27;20460;-82
2023/02/19 03:28:02;;;;;;;60.97;56.27;;;;;;;;;;5138245;27;20430;-81
2023/02/19 03:30:30;;;;;;;62.00;56.70;;;;;;;;;;5139944;27;20547;-82
2023/02/19 03:33:00;;;;;;;57.43;53.23;;;;;;;;;;5139472;27;20498;-81
2023/02/19 03:35:30;;;;;;;59.67;54.90;;;;;;;;;;5139241;27;20426;-81
2023/02/19 03:38:01;;;;;;;60.63;56.07;;;;;;;;;;5139132;27;20532;-81
2023/02/19 03:40:30;;;;;;;68.60;63.17;;;;;;;;;;5139440;27;20418;-80
2023/02/19 03:43:01;;;;;;;61.73;56.47;;;;;;;;;;5139366;27;20443;-81
2023/02/19 03:45:36;;;;;;;63.87;58.10;;;;;;;;;;5139479;27;20505;-81
2023/02/19 03:48:07;;;;;;;63.93;58.47;;;;;;;;;;5139641;27;20785;-82
2023/02/19 03:50:41;;;;;;;66.27;61.33;;;;;;;;;;5139926;27;20423;-81
2023/02/19 03:53:12;;;;;;;60.37;55.20;;;;;;;;;;5139107;27;21011;-81
2023/02/19 03:55:43;;;;;;;63.40;58.67;;;;;;;;;;5138617;27;20512;-81
2023/02/19 03:58:15;;;;;;;61.70;56.73;;;;;;;;;;5139523;27;20482;-81
2023/02/19 04:00:45;;;;;;;57.50;52.90;;;;;;;;;;5139701;27;20459;-81
2023/02/19 04:03:16;;;;;;;60.10;55.40;;;;;;;;;;5138849;27;20409;-82
2023/02/19 04:05:47;;;;;;;61.83;57.10;;;;;;;;;;5138806;27;20468;-82
2023/02/19 04:08:16;;;;;;;55.43;51.40;;;;;;;;;;5139102;27;20468;-81
2023/02/19 04:10:44;;;;;;;54.83;50.10;;;;;;;;;;5139011;27;20455;-81
2023/02/19 04:13:14;;;;;;;57.30;53.30;;;;;;;;;;5138051;27;20473;-82
2023/02/19 04:15:42;;;;;;;54.87;50.43;;;;;;;;;;5139146;27;20432;-81
2023/02/19 04:18:12;;;;;;;55.33;51.67;;;;;;;;;;5138986;27;20930;-81
2023/02/19 04:20:40;;;;;;;53.30;49.70;;;;;;;;;;5139605;27;20447;-81
2023/02/19 04:23:08;;;;;;;58.47;54.20;;;;;;;;;;5138124;27;20508;-82
2023/02/19 04:25:36;;;;;;;51.73;47.63;;;;;;;;;;5137843;27;21019;-81
2023/02/19 04:28:03;;;;;;;53.63;49.77;;;;;;;;;;5138122;27;20919;-81
2023/02/19 04:30:30;;;;;;;48.50;44.70;;;;;;;;;;5138727;27;20446;-81
2023/02/19 04:32:58;;;;;;;49.77;45.97;;;;;;;;;;5137785;27;20480;-81
2023/02/19 04:35:25;;;;;;;57.63;53.33;;;;;;;;;;5138209;27;20470;-81
2023/02/19 04:37:52;;;;;;;40.23;36.77;;;;;;;;;;5138567;27;20479;-81
2023/02/19 04:40:20;;;;;;;43.93;40.20;;;;;;;;;;5138930;27;20409;-81
2023/02/19 04:42:47;;;;;;;45.37;41.77;;;;;;;;;;5137812;27;20436;-81
2023/02/19 04:45:18;;;;;;;43.20;39.53;;;;;;;;;;5138084;27;20469;-82
2023/02/19 04:47:45;;;;;;;38.10;35.40;;;;;;;;;;5138718;27;20428;-81
2023/02/19 04:50:12;;;;;;;41.57;38.00;;;;;;;;;;5138427;27;20434;-81
2023/02/19 04:52:39;;;;;;;42.73;38.77;;;;;;;;;;5137565;27;20443;-81
2023/02/19 04:55:07;;;;;;;40.67;37.57;;;;;;;;;;5137840;27;20516;-81
2023/02/19 04:57:35;;;;;;;43.50;40.03;;;;;;;;;;5138426;27;20388;-81
2023/02/19 05:00:03;;;;;;;40.77;37.73;;;;;;;;;;5138406;27;20955;-81
2023/02/19 05:02:30;;;;;;;38.60;35.47;;;;;;;;;;5137307;27;20996;-81
2023/02/19 05:04:57;;;;;;;41.97;38.60;;;;;;;;;;5137800;27;20484;-81
2023/02/19 05:07:24;;;;;;;40.20;36.87;;;;;;;;;;5136850;27;20456;-81
2023/02/19 05:09:51;;;;;;;40.23;37.03;;;;;;;;;;5138100;27;20447;-82
2023/02/19 05:12:18;;;;;;;41.43;38.23;;;;;;;;;;5137063;27;20472;-81
2023/02/19 05:14:46;;;;;;;35.70;33.20;;;;;;;;;;5137338;28;20508;-81
2023/02/19 05:17:13;;;;;;;37.13;34.47;;;;;;;;;;5136847;27;20433;-81
2023/02/19 05:19:40;;;;;;;32.77;30.70;;;;;;;;;;5137906;28;20450;-82
2023/02/19 05:22:07;;;;;;;37.77;35.00;;;;;;;;;;5137049;28;20437;-80
2023/02/19 05:24:34;;;;;;;37.33;34.43;;;;;;;;;;5137632;28;20432;-82
2023/02/19 05:27:02;;;;;;;37.50;34.40;;;;;;;;;;5137103;27;20442;-81
2023/02/19 05:29:30;;;;;;;37.00;34.30;;;;;;;;;;5138245;28;20450;-81
2023/02/19 05:31:59;;;;;;;38.27;35.67;;;;;;;;;;5136827;28;20424;-81
2023/02/19 05:34:26;;;;;;;38.17;35.13;;;;;;;;;;5137381;28;21077;-81
2023/02/19 05:36:53;;;;;;;38.17;35.60;;;;;;;;;;5136765;27;20781;-80
2023/02/19 05:39:20;;;;;;;39.70;36.70;;;;;;;;;;5137549;28;20411;-81
2023/02/19 05:41:47;;;;;;;39.03;35.70;;;;;;;;;;5136316;28;20415;-81
2023/02/19 05:44:14;;;;;;;35.93;33.23;;;;;;;;;;5137963;28;20414;-81
2023/02/19 05:46:41;;;;;;;37.77;35.00;;;;;;;;;;5137512;28;21063;-81
2023/02/19 05:49:09;;;;;;;41.27;37.90;;;;;;;;;;5137005;27;20488;-81
2023/02/19 05:51:36;;;;;;;39.00;36.00;;;;;;;;;;5140755;27;20469;-82
2023/02/19 05:54:03;;;;;;;42.83;39.60;;;;;;;;;;5141325;27;20975;-81
2023/02/19 05:56:32;;;;;;;42.00;38.90;;;;;;;;;;5141751;27;20495;-81
2023/02/19 05:58:59;;;;;;;36.47;34.10;;;;;;;;;;5140529;27;21098;-82
2023/02/19 06:01:27;;;;;;;41.13;38.07;;;;;;;;;;5141237;27;20459;-81
2023/02/19 06:03:55;;;;;;;38.30;35.80;;;;;;;;;;5141925;27;20837;-81
2023/02/19 06:06:23;;;;;;;38.23;35.47;;;;;;;;;;5141263;27;20521;-82
2023/02/19 06:08:50;;;;;;;41.57;38.30;;;;;;;;;;5141382;27;20440;-81
2023/02/19 06:11:17;;;;;;;40.07;37.10;;;;;;;;;;5140107;27;20523;-84
2023/02/19 06:13:44;;;;;;;37.23;34.93;;;;;;;;;;5140890;27;20476;-82
2023/02/19 06:16:11;;;;;;;38.07;35.47;;;;;;;;;;5141456;27;20449;-82
2023/02/19 06:18:39;;;;;;;41.83;38.93;;;;;;;;;;5141354;27;20432;-82
2023/02/19 06:21:07;;;;;;;38.47;35.70;;;;;;;;;;5141465;27;20452;-82
2023/02/19 06:23:36;;;;;;;37.17;34.67;;;;;;;;;;5140576;27;20503;-81
2023/02/19 06:26:10;;;;;;;37.93;35.27;;;;;;;;;;5140534;27;20487;-81
2023/02/19 06:28:37;;;;;;;40.30;36.97;;;;;;;;;;5141387;27;20850;-81
2023/02/19 06:31:04;;;;;;;41.17;37.97;;;;;;;;;;5140899;27;20457;-82
2023/02/19 06:33:32;;;;;;;39.17;36.17;;;;;;;;;;5140825;27;20505;-81
2023/02/19 06:36:00;;;;;;;34.63;32.47;;;;;;;;;;5140497;27;20941;-81
2023/02/19 06:38:27;;;;;;;41.97;39.10;;;;;;;;;;5139727;27;20463;-82
2023/02/19 06:40:56;;;;;;;37.47;34.60;;;;;;;;;;5140659;27;20951;-83
2023/02/19 06:43:23;;;;;;;36.43;33.80;;;;;;;;;;5140059;27;20474;-82
2023/02/19 06:45:58;;;;;;;37.13;34.57;;;;;;;;;;5140905;27;20491;-81
2023/02/19 06:48:25;;;;;;;39.97;36.90;;;;;;;;;;5140180;27;20881;-81
2023/02/19 06:50:52;;;;;;;38.13;35.50;;;;;;;;;;5140938;27;20876;-81
2023/02/19 06:53:19;;;;;;;37.57;34.87;;;;;;;;;;5139944;27;20503;-81
2023/02/19 06:55:56;;;;;;;36.33;33.83;;;;;;;;;;5140356;27;20471;-82
2023/02/19 06:58:24;;;;;;;45.03;41.67;;;;;;;;;;5140656;27;20455;-82
2023/02/19 07:00:51;;;;;;;62.57;59.57;;;;;;;;;;5141288;27;20452;-83
2023/02/19 07:03:18;;;;;;;68.73;65.47;;;;;;;;;;5141282;27;20570;-83
2023/02/19 07:05:45;;;;;;;73.37;68.67;;;;;;;;;;5140539;27;20575;-83
2023/02/19 07:08:12;;;;;;;66.90;63.50;;;;;;;;;;5141490;27;20433;-83
2023/02/19 07:10:39;;;;;;;69.13;65.53;;;;;;;;;;5141181;27;20564;-83
2023/02/19 07:13:07;;;;;;;54.37;51.57;;;;;;;;;;5140508;27;20482;-84
2023/02/19 07:15:34;;;;;;;53.30;50.60;;;;;;;;;;5140490;27;20462;-83
2023/02/19 07:18:01;;;;;;;55.47;52.57;;;;;;;;;;5140875;27;20466;-83
2023/02/19 07:20:28;;;;;;;55.43;52.63;;;;;;;;;;5141061;27;20506;-82
2023/02/19 07:22:57;;;;;;;55.90;53.00;;;;;;;;;;5140349;27;20455;-83
2023/02/19 07:25:24;;;;;;;54.50;51.80;;;;;;;;;;5140817;27;20459;-83
2023/02/19 07:27:51;;;;;;;54.60;51.73;;;;;;;;;;5141257;27;20435;-83
2023/02/19 07:30:20;;;;;;;51.60;48.90;;;;;;;;;;5143163;27;20984;-83
2023/02/19 07:32:47;;;;;;;57.13;54.17;;;;;;;;;;5143019;27;20431;-83
2023/02/19 07:35:14;;;;;;;58.93;55.93;;;;;;;;;;5143420;27;20555;-83
2023/02/19 07:37:41;;;;;;;57.57;54.77;;;;;;;;;;5143282;27;20448;-83
2023/02/19 07:40:08;;;;;;;54.07;51.37;;;;;;;;;;5142849;27;20500;-82
2023/02/19 07:42:35;;;;;;;53.37;50.67;;;;;;;;;;5142385;27;20447;-83
2023/02/19 07:45:02;;;;;;;48.93;46.50;;;;;;;;;;5142517;27;20463;-83
2023/02/19 07:47:31;;;;;;;48.50;46.10;;;;;;;;;;5141849;27;20864;-83
2023/02/19 07:49:58;;;;;;;51.13;48.60;;;;;;;;;;5142365;27;20458;-83
2023/02/19 07:52:25;;;;;;;46.47;44.07;;;;;;;;;;5142030;27;20417;-82
2023/02/19 07:54:52;;;;;;;46.83;44.47;;;;;;;;;;5142476;27;20449;-82
2023/02/19 07:57:18;;;;;;;50.47;47.87;;;;;;;;;;5142382;27;20418;-82
2023/02/19 07:59:46;;;;;;;48.00;45.53;;;;;;;;;;5140949;27;20472;-83
2023/02/19 08:05:02;;;;;;;46.83;44.47;;;;;;;;;;5140324;27;20446;-82
2023/02/19 08:07:32;;;;;;;50.00;47.50;;;;;;;;;;5141309;27;20417;-82
2023/02/19 08:15:24;;;;;;;45.90;43.50;;;;;;;;;;5141308;27;20578;-82
2023/02/19 08:17:51;;;;;;;47.07;44.57;;;;;;;;;;5141552;27;20992;-82
2023/02/19 08:20:19;;;;;;;47.73;45.13;;;;;;;;;;5141778;27;20499;-86
2023/02/19 08:22:46;;;;;;;47.00;44.50;;;;;;;;;;5141298;27;20466;-83
2023/02/19 08:25:13;;;;;;;47.47;44.97;;;;;;;;;;5140947;27;20458;-83
2023/02/19 08:27:40;;;;;;;46.87;44.47;;;;;;;;;;5141349;27;20454;-83
2023/02/19 08:30:08;;;;;;;47.30;44.80;;;;;;;;;;5141990;27;20436;-83
2023/02/19 08:32:35;;;;;;;43.90;41.60;;;;;;;;;;5141627;27;20805;-82
2023/02/19 08:35:02;;;;;;;47.47;44.97;;;;;;;;;;5141076;27;20468;-82
2023/02/19 08:37:31;;;;;;;48.73;46.23;;;;;;;;;;5141867;27;20402;-83
2023/02/19 08:39:58;;;;;;;46.10;43.70;;;;;;;;;;5141519;27;20484;-83
2023/02/19 08:42:25;;;;;;;46.70;44.40;;;;;;;;;;5142395;27;20425;-84
2023/02/19 08:44:52;;;;;;;45.87;43.57;;;;;;;;;;5141971;27;20418;-83
2023/02/19 08:47:18;;;;;;;48.80;46.30;;;;;;;;;;5141487;27;20472;-82
2023/02/19 08:49:45;;;;;;;44.90;42.70;;;;;;;;;;5140548;27;20985;-83
2023/02/19 08:52:12;;;;;;;46.20;43.90;;;;;;;;;;5140132;27;20422;-83
2023/02/19 08:54:41;;;;;;;49.23;46.77;;;;;;;;;;5140166;27;20515;-83
2023/02/19 08:57:08;;;;;;;46.57;44.27;;;;;;;;;;5140539;27;20435;-82
2023/02/19 08:59:35;;;;;;;46.30;44.10;;;;;;;;;;5140231;27;20429;-82
2023/02/19 09:02:02;;;;;;;46.67;44.47;;;;;;;;;;5139740;27;20480;-82
2023/02/19 09:04:29;;;;;;;49.33;46.93;;;;;;;;;;5140843;27;20459;-83
2023/02/19 09:06:56;;;;;;;46.43;44.13;;;;;;;;;;5140337;27;20463;-82
2023/02/19 09:09:23;;;;;;;44.95;42.65;;;;;;;;;;5141428;27;20491;-83
2023/02/19 09:11:51;;;;;;;47.57;45.27;;;;;;;;;;5140002;27;20254;-83
2023/02/19 09:14:18;;;;;;;44.45;42.25;;;;;;;;;;5141305;28;20447;-83
2023/02/19 09:16:45;;;;;;;46.50;44.20;;;;;;;;;;5141627;28;20653;-82
2023/02/19 09:19:12;;;;;;;45.70;43.50;;;;;;;;;;5141282;28;20431;-82
2023/02/19 09:21:39;;;;;;;42.80;40.70;;;;;;;;;;5137937;28;20425;-86
2023/02/19 09:24:09;;;;;;;42.73;40.53;;;;;;;;;;5136936;27;20447;-81
2023/02/19 09:26:36;;;;;;;44.67;42.40;;;;;;;;;;5141088;27;20475;-80
2023/02/19 09:29:04;;;;;;;41.20;39.10;;;;;;;;;;5142540;27;20421;-82
2023/02/19 09:31:33;;;;;;;40.30;38.20;;;;;;;;;;5143519;27;20455;-82
2023/02/19 09:34:00;;;;;;;42.33;40.13;;;;;;;;;;5144471;27;20452;-82
2023/02/19 09:36:27;;;;;;;41.13;39.03;;;;;;;;;;5143708;27;20469;-82
2023/02/19 09:38:54;;;;;;;38.30;36.22;;;;;;;;;;5141504;27;20496;-82
2023/02/19 09:41:24;;;;;;;39.07;37.07;;;;;;;;;;5130253;27;20649;-82
2023/02/19 09:43:51;;;;;;;39.47;37.40;;;;;;;;;;5142744;27;20463;-84
2023/02/19 09:46:25;;;;;;;42.10;39.80;;;;;;;;;;5141944;27;20531;-81
2023/02/19 09:48:53;;;;;;;39.40;37.47;;;;;;;;;;5141783;27;20398;-81
2023/02/19 09:51:21;;;;;;;39.73;37.70;;;;;;;;;;5140625;27;20447;-81
2023/02/19 09:53:49;;;;;;;38.00;36.10;;;;;;;;;;5140929;27;20903;-81
2023/02/19 09:56:17;;;;;;;37.37;35.47;;;;;;;;;;5140508;27;20490;-81
2023/02/19 09:58:47;;;;;;;38.03;36.13;;;;;;;;;;5140649;27;20467;-81
2023/02/19 10:01:14;;;;;;;33.10;31.40;;;;;;;;;;5141174;27;20789;-81
2023/02/19 10:03:45;;;;;;;36.83;34.77;;;;;;;;;;5140917;27;20423;-81
2023/02/19 10:06:14;;;;;;;36.33;34.43;;;;;;;;;;5140993;27;20442;-81
2023/02/19 10:08:42;;;;;;;37.20;35.30;;;;;;;;;;5141363;27;20422;-81
2023/02/19 10:11:12;;;;;;;32.53;30.63;;;;;;;;;;5141342;27;20507;-81
2023/02/19 10:13:42;;;;;;;32.90;31.13;;;;;;;;;;5140871;27;20845;-81
2023/02/19 10:16:14;;;;;;;32.70;31.10;;;;;;;;;;5141673;27;20487;-81
2023/02/19 10:18:44;;;;;;;33.40;31.80;;;;;;;;;;5141467;27;20515;-80
2023/02/19 10:21:11;;;;;;;30.90;29.40;;;;;;;;;;5140950;27;20438;-81
2023/02/19 10:23:40;;;;;;;31.00;29.40;;;;;;;;;;5140998;27;20901;-81
2023/02/19 10:26:07;;;;;;;30.60;28.90;;;;;;;;;;5141243;27;20503;-81
2023/02/19 10:28:35;;;;;;;32.60;30.90;;;;;;;;;;5141314;27;20452;-81
2023/02/19 10:31:04;;;;;;;30.43;28.93;;;;;;;;;;5140417;27;21001;-80
2023/02/19 10:33:31;;;;;;;27.70;26.40;;;;;;;;;;5140365;27;20889;-81
2023/02/19 10:35:59;;;;;;;29.40;27.80;;;;;;;;;;5139973;27;20463;-81
2023/02/19 10:38:28;;;;;;;26.93;25.63;;;;;;;;;;5140884;27;20451;-81
2023/02/19 10:40:59;;;;;;;26.90;25.60;;;;;;;;;;5141104;27;20436;-80
2023/02/19 10:43:32;;;;;;;26.80;25.40;;;;;;;;;;5141179;27;20432;-81
2023/02/19 10:45:59;;;;;;;26.87;25.47;;;;;;;;;;5141879;27;20464;-81
2023/02/19 10:48:29;;;;;;;26.27;24.87;;;;;;;;;;5141114;27;20447;-81
2023/02/19 10:50:58;;;;;;;25.30;24.00;;;;;;;;;;5140214;27;20461;-80
2023/02/19 10:53:38;;;;;;;25.90;24.60;;;;;;;;;;5139737;27;20445;-81
2023/02/19 10:56:07;;;;;;;25.40;24.10;;;;;;;;;;5140060;27;20535;-80
2023/02/19 10:58:36;;;;;;;24.97;23.77;;;;;;;;;;5139900;27;20566;-81
2023/02/19 11:01:10;;;;;;;23.33;22.23;;;;;;;;;;5139918;27;20928;-82
2023/02/19 11:03:38;;;;;;;24.07;22.87;;;;;;;;;;5139463;27;20478;-83
2023/02/19 11:06:07;;;;;;;25.33;24.07;;;;;;;;;;5141128;27;20495;-84
2023/02/19 11:08:36;;;;;;;27.10;25.60;;;;;;;;;;5142275;27;20447;-83
2023/02/19 11:11:04;;;;;;;25.10;23.80;;;;;;;;;;5141601;27;20449;-83
2023/02/19 11:13:36;;;;;;;22.47;21.33;;;;;;;;;;5139715;27;20445;-82
2023/02/19 11:16:04;;;;;;;22.93;21.73;;;;;;;;;;5141064;27;20488;-81
2023/02/19 11:18:34;;;;;;;22.47;21.37;;;;;;;;;;5142154;27;20418;-84
2023/02/19 11:21:02;;;;;;;22.97;21.87;;;;;;;;;;5142947;27;20458;-84
2023/02/19 11:23:31;;;;;;;21.90;20.90;;;;;;;;;;5144120;27;20447;-85
2023/02/19 11:26:01;;;;;;;23.10;21.90;;;;;;;;;;5142638;27;21039;-81
2023/02/19 11:28:31;;;;;;;22.23;21.23;;;;;;;;;;5141693;27;20447;-82
2023/02/19 11:31:13;;;;;;;22.30;21.13;;;;;;;;;;5141924;27;20464;-82
2023/02/19 11:33:44;;;;;;;22.30;21.20;;;;;;;;;;5141035;27;20952;-82
2023/02/19 11:36:22;;;;;;;21.73;20.73;;;;;;;;;;5141978;27;20813;-83
2023/02/19 11:38:48;;;;;;;20.50;19.50;;;;;;;;;;5144238;27;20907;-83
2023/02/19 11:41:21;;;;;;;21.90;20.80;;;;;;;;;;5143938;27;20442;-83
2023/02/19 11:43:53;;;;;;;21.47;20.40;;;;;;;;;;5144284;27;20449;-83
2023/02/19 11:46:24;;;;;;;20.90;19.90;;;;;;;;;;5143645;27;20455;-83
2023/02/19 11:48:56;;;;;;;19.90;19.00;;;;;;;;;;5143461;27;20520;-83
2023/02/19 11:51:29;;;;;;;20.33;19.33;;;;;;;;;;5143511;27;20426;-82
2023/02/19 11:54:03;;;;;;;19.73;18.83;;;;;;;;;;5145297;27;20435;-83
2023/02/19 11:56:33;;;;;;;20.50;19.40;;;;;;;;;;5144144;27;20483;-82
2023/02/19 11:59:03;;;;;;;18.83;17.93;;;;;;;;;;5143701;27;20499;-82
2023/02/19 12:01:44;;;;;;;18.90;18.10;;;;;;;;;;5143062;27;20434;-83
2023/02/19 12:04:30;;;;;;;18.73;17.83;;;;;;;;;;5143281;27;20437;-82
2023/02/19 12:07:05;;;;;;;18.97;18.07;;;;;;;;;;5143375;27;20991;-84
2023/02/19 12:09:38;;;;;;;19.07;18.00;;;;;;;;;;5143950;27;20938;-83
2023/02/19 12:12:14;;;;;;;19.20;18.30;;;;;;;;;;5142798;27;20455;-83
2023/02/19 12:14:55;;;;;;;19.03;17.93;;;;;;;;;;5142742;27;20439;-83
2023/02/19 12:17:30;;;;;;;19.73;18.73;;;;;;;;;;5143229;27;20490;-83
2023/02/19 12:20:03;;;;;;;19.43;18.30;;;;;;;;;;5144206;27;20426;-82
2023/02/19 12:22:31;;;;;;;20.77;19.43;;;;;;;;;;5143327;27;20406;-82
2023/02/19 12:25:12;;;;;;;20.87;19.73;;;;;;;;;;5143959;27;20441;-83
2023/02/19 12:27:44;;;;;;;19.30;18.30;;;;;;;;;;5144405;27;20424;-82
2023/02/19 12:30:22;;;;;;;19.87;18.67;;;;;;;;;;5142673;27;20454;-82
2023/02/19 12:33:08;;;;;;;19.63;18.63;;;;;;;;;;5143127;27;20419;-82
2023/02/19 12:35:41;;;;;;;19.00;18.10;;;;;;;;;;5143450;27;20486;-83
2023/02/19 12:38:13;;;;;;;20.10;19.10;;;;;;;;;;5143402;27;20444;-82
2023/02/19 12:40:48;;;;;;;18.87;17.97;;;;;;;;;;5143130;27;20394;-82
2023/02/19 12:43:17;;;;;;;19.10;18.00;;;;;;;;;;5143001;27;20820;-83
2023/02/19 12:45:48;;;;;;;20.37;19.27;;;;;;;;;;5143817;27;21031;-82
2023/02/19 12:48:19;;;;;;;19.43;18.53;;;;;;;;;;5143190;27;20442;-82
2023/02/19 12:50:48;;;;;;;19.13;18.13;;;;;;;;;;5143844;27;20533;-82
2023/02/19 12:53:19;;;;;;;20.57;19.40;;;;;;;;;;5142052;27;20471;-83
2023/02/19 12:55:47;;;;;;;19.87;18.67;;;;;;;;;;5142358;27;20486;-82
2023/02/19 12:58:16;;;;;;;19.07;18.07;;;;;;;;;;5142576;27;20517;-82
2023/02/19 13:00:44;;;;;;;18.53;17.53;;;;;;;;;;5143544;27;20437;-82
2023/02/19 13:03:19;;;;;;;19.13;18.13;;;;;;;;;;5143220;27;20459;-83
2023/02/19 13:05:49;;;;;;;19.73;18.63;;;;;;;;;;5141349;27;20520;-80
2023/02/19 13:08:20;;;;;;;19.47;18.43;;;;;;;;;;5142015;27;20516;-81
2023/02/19 13:10:51;;;;;;;20.53;19.43;;;;;;;;;;5143204;27;20859;-84
2023/02/19 13:13:21;;;;;;;19.20;18.00;;;;;;;;;;5141059;27;21010;-82
2023/02/19 13:15:49;;;;;;;19.40;18.40;;;;;;;;;;5142390;28;20867;-83
2023/02/19 13:18:20;;;;;;;19.30;18.10;;;;;;;;;;5143163;28;20445;-83
2023/02/19 13:20:50;;;;;;;19.17;18.17;;;;;;;;;;5142871;28;20389;-83
2023/02/19 13:26:23;;;;;;;20.50;19.33;;;;;;;;;;5143059;28;20493;-83
2023/02/19 13:28:59;;;;;;;19.60;18.50;;;;;;;;;;5143434;28;20431;-83
2023/02/19 13:31:32;;;;;;;20.20;19.10;;;;;;;;;;5142688;28;20451;-85
2023/02/19 13:34:04;;;;;;;19.80;18.70;;;;;;;;;;5143168;27;20462;-83
2023/02/19 13:36:31;;;;;;;20.03;18.97;;;;;;;;;;5143514;28;20475;-83
2023/02/19 13:38:59;;;;;;;20.23;19.13;;;;;;;;;;5143434;28;20437;-83
2023/02/19 13:41:31;;;;;;;21.03;19.83;;;;;;;;;;5140948;28;20442;-82
2023/02/19 13:44:00;;;;;;;21.60;20.50;;;;;;;;;;5141456;28;20428;-83
2023/02/19 13:46:34;;;;;;;21.37;20.27;;;;;;;;;;5141516;28;20513;-83
2023/02/19 13:49:19;;;;;;;21.43;20.33;;;;;;;;;;5140932;27;20443;-83
2023/02/19 13:51:52;;;;;;;21.73;20.53;;;;;;;;;;5142907;28;20451;-83
2023/02/19 13:54:24;;;;;;;20.30;19.27;;;;;;;;;;5143985;28;20452;-84
2023/02/19 13:56:51;;;;;;;20.97;19.87;;;;;;;;;;5142608;28;20545;-84
2023/02/19 13:59:25;;;;;;;20.87;19.60;;;;;;;;;;5142562;27;20400;-85
2023/02/19 14:02:14;;;;;;;20.73;19.50;;;;;;;;;;5143151;28;20408;-85
2023/02/19 14:04:43;;;;;;;20.50;19.40;;;;;;;;;;5144843;28;20448;-84
2023/02/19 14:07:44;;;;;;;20.53;19.43;;;;;;;;;;5143420;28;20433;-84
2023/02/19 14:10:14;;;;;;;20.27;19.07;;;;;;;;;;5143957;27;20395;-84
2023/02/19 14:12:41;;;;;;;19.30;18.30;;;;;;;;;;5145698;27;20500;-84
2023/02/19 14:15:26;;;;;;;19.90;18.53;;;;;;;;;;5145506;27;20475;-84
2023/02/19 14:17:54;;;;;;;20.03;18.83;;;;;;;;;;5146407;27;20814;-84
2023/02/19 14:20:40;;;;;;;20.20;19.10;;;;;;;;;;5145835;27;20447;-84
2023/02/19 14:23:15;;;;;;;20.50;19.40;;;;;;;;;;5145780;27;20492;-84
2023/02/19 14:25:49;;;;;;;20.90;19.50;;;;;;;;;;5145582;27;20487;-84
2023/02/19 14:28:32;;;;;;;20.23;19.23;;;;;;;;;;5146576;27;20455;-84
2023/02/19 14:31:00;;;;;;;21.97;20.33;;;;;;;;;;5146448;27;20452;-84
2023/02/19 14:33:28;;;;;;;20.77;19.67;;;;;;;;;;5147027;27;20483;-85
2023/02/19 14:35:58;;;;;;;20.47;19.37;;;;;;;;;;5145269;27;20465;-84
2023/02/19 14:38:28;;;;;;;20.67;19.57;;;;;;;;;;5146225;27;21002;-85
2023/02/19 14:40:56;;;;;;;21.73;20.53;;;;;;;;;;5145776;27;20442;-84
2023/02/19 14:43:24;;;;;;;21.27;20.03;;;;;;;;;;5146652;27;20924;-83
2023/02/19 14:45:53;;;;;;;20.90;19.80;;;;;;;;;;5145163;27;20484;-84
2023/02/19 14:48:23;;;;;;;20.60;19.40;;;;;;;;;;5146525;27;20448;-84
2023/02/19 14:50:51;;;;;;;20.43;19.13;;;;;;;;;;5145598;27;20428;-84
2023/02/19 14:53:18;;;;;;;21.30;19.80;;;;;;;;;;5145294;27;20421;-84
2023/02/19 14:55:46;;;;;;;20.80;19.60;;;;;;;;;;5145716;27;20980;-84
2023/02/19 14:58:17;;;;;;;20.90;19.80;;;;;;;;;;5146535;27;20452;-84